Aérodrome :
LOGIN :

S'inscrire | Disclaimer

   EN    FR    IT 

 










Légende :    VFR   VFR Marginal   IFR   IFR Intensif   IFR Très Intensif
Visi : 
Plafond : 
>= 8 km
>= 3000ft
5 à 8 km
1000 à 3000 ft
1500m à 5 km
500 à 1000 ft
800 à 1500m
200 à 500 ft
< 800m
< 200 ft
Symboles :   Orages  Brouillard  Fortes neiges  Fortes précipitations  Vent > 20 kt
SIGMETs :   Divers  Orages  Givrage  Turbulence  Onde Orograph.  Cendres Volcan.






- Altitude de l'aérodrome : 121 ft
- Code IATA : HUY


EGNJ - Humberside

DERNIER METAR :
  • 250420Z AUTO 21008KT 8000 BKN008/// OVC012/// 06/06 Q1017

METARs EXPIRÉS :
  • 250350Z AUTO 21008KT 9000 OVC009/// 06/06 Q1017
  • 250320Z AUTO 23008KT 9999 BKN012/// OVC016/// 07/05 Q1018
  • 250250Z AUTO 23006KT 7000 OVC015/// 07/06 Q1018
  • 250220Z AUTO 23008KT 7000 FEW008/// BKN016/// OVC021/// 07/06 Q1018
  • 250150Z AUTO 20005KT 5000 BR SCT009/// OVC019/// 06/06 Q1018

TAF AMD TAF EGNJ
Valide du 25 à 03h jusqu'au 25 à 12h UTC


250325Z 2503/2512 21006KT 9999 FEW009 BKN020
TEMPO 2503/2509 4000 BR BKN009
PROB30
TEMPO 2503/2509 2500
ATIS : +44 1652 682 020



MET'MAP, la Météo Aéronautique d'un coup d'oeil ! - Copyright ORBIFLY Décembre 2007 - Disclaimer

ORBIFLY MET'MAP TEAM :

Programmation & Développement : Alexandra Zaïnal
Sur une idée originale de : Baudouin d'Aumeries
Assistance à la programmation : Marc-Olivier Méhu
Soutien technique & logistique : Manuel Goepfert

Contact : metmap@orbifly.com




SOURCES & CREDITS :

   NOAA